Time;durP1;ratioP1;P1;durP2;ratioP2;P2;SDS_P1;SDS_P2;PMS_P1;PMS_P2;Temp;Humidity;BMP_temperature;BMP_pressure;BME280_temperature;BME280_humidity;BME280_pressure;Samples;Min_cycle;Max_cycle;Signal;HPM_P1;HPM_P2
2022/05/21 00:08:22;;;;;;;9.20;7.30;;;;;;;16.33;65.95;98763.77;429674;1271;142071;-49
2022/05/21 00:18:27;;;;;;;9.50;8.50;;;;;;;15.94;66.23;98704.43;430863;1273;141180;-50
2022/05/21 00:28:35;;;;;;;9.60;8.60;;;;;;;15.68;67.11;98671.36;430048;1273;141732;-51
2022/05/21 00:38:41;;;;;;;10.80;9.70;;;;;;;15.57;68.01;98705.12;431442;1274;143332;-49
2022/05/21 00:48:51;;;;;;;10.50;9.40;;;;;;;15.54;68.77;98700.43;430260;1272;142167;-52
2022/05/21 01:09:18;;;;;;;12.10;10.20;;;;;;;15.35;70.31;98646.50;429728;1273;142467;-50
2022/05/21 01:19:23;;;;;;;12.80;10.60;;;;;;;15.35;70.84;98611.50;430686;1273;143538;-49
2022/05/21 01:29:31;;;;;;;11.50;10.40;;;;;;;15.40;71.19;98603.00;429626;1273;143870;-50
2022/05/21 01:39:38;;;;;;;11.70;10.00;;;;;;;15.37;71.57;98593.45;431202;1273;155244;-52
2022/05/21 01:49:44;;;;;;;9.20;8.30;;;;;;;15.36;72.23;98644.37;430143;1273;141656;-49
2022/05/21 01:59:50;;;;;;;5.30;4.80;;;;;;;15.07;73.82;98662.17;430378;1273;142452;-51
2022/05/21 02:09:55;;;;;;;4.50;3.10;;;;;;;14.80;74.79;98635.67;430711;1273;142164;-46
2022/05/21 02:20:02;;;;;;;4.10;3.70;;;;;;;14.75;75.18;98624.33;430647;1273;141703;-48
2022/05/21 02:30:10;;;;;;;5.10;3.40;;;;;;;14.65;75.69;98620.34;431077;1273;141441;-50
2022/05/21 02:40:15;;;;;;;5.30;3.00;;;;;;;14.62;76.27;98613.79;430810;1273;140732;-49
2022/05/21 02:50:23;;;;;;;3.30;3.10;;;;;;;14.69;76.94;98622.29;429957;1273;141526;-48
2022/05/21 03:00:31;;;;;;;4.40;3.90;;;;;;;14.71;77.06;98641.44;430874;1272;141324;-48
2022/05/21 03:10:37;;;;;;;5.20;4.60;;;;;;;14.67;77.48;98668.96;429596;1273;436392;-51
2022/05/21 03:20:43;;;;;;;5.30;4.50;;;;;;;14.75;77.67;98662.80;430815;1273;142502;-48
2022/05/21 03:30:51;;;;;;;4.60;4.20;;;;;;;14.74;77.69;98660.02;430603;1272;142396;-50
2022/05/21 03:40:56;;;;;;;4.90;4.10;;;;;;;14.83;78.08;98663.42;430201;1272;162565;-48
2022/05/21 03:51:02;;;;;;;5.60;5.00;;;;;;;14.87;78.08;98676.23;431216;1273;146184;-50
2022/05/21 04:01:08;;;;;;;4.90;4.40;;;;;;;14.89;78.25;98687.90;431285;1273;140940;-48
2022/05/21 04:11:14;;;;;;;5.30;4.10;;;;;;;14.89;78.83;98703.70;430520;1273;141588;-53
2022/05/21 04:21:20;;;;;;;6.00;4.40;;;;;;;14.99;79.26;98700.96;431745;1273;141589;-47
2022/05/21 04:31:26;;;;;;;7.70;6.80;;;;;;;15.07;79.59;98689.88;431016;1273;142859;-51
2022/05/21 04:41:37;;;;;;;10.20;9.30;;;;;;;15.18;80.41;98690.71;433036;1273;141251;-49
2022/05/21 04:51:43;;;;;;;8.70;8.00;;;;;;;15.55;80.93;98687.23;431044;1273;145617;-49
2022/05/21 05:01:49;;;;;;;7.20;6.50;;;;;;;15.90;80.22;98694.80;430071;1271;142792;-48
2022/05/21 05:11:55;;;;;;;5.20;2.30;;;;;;;15.96;78.13;98711.30;430588;1273;142159;-49
2022/05/21 05:22:00;;;;;;;3.30;1.60;;;;;;;19.23;74.87;98737.15;431164;1273;141757;-53
2022/05/21 05:32:08;;;;;;;2.60;1.20;;;;;;;26.77;57.68;98748.04;430965;1273;142591;-48
2022/05/21 05:42:16;;;;;;;4.60;0.90;;;;;;;24.00;53.84;98774.92;431328;1273;141802;-48
2022/05/21 05:52:22;;;;;;;3.10;1.00;;;;;;;21.31;55.46;98803.16;431038;1271;141427;-48
2022/05/21 06:12:53;;;;;;;2.40;0.50;;;;;;;21.41;53.75;98820.16;431528;1273;140828;-51
2022/05/21 06:22:59;;;;;;;1.00;0.40;;;;;;;21.82;51.10;98837.61;430532;1273;143255;-52
2022/05/21 06:33:16;;;;;;;4.00;0.70;;;;;;;22.79;47.52;98849.96;430786;1273;145046;-49
2022/05/21 06:43:22;;;;;;;0.40;0.40;;;;;;;21.08;48.70;98861.64;431067;1273;144962;-53
2022/05/21 06:53:28;;;;;;;12.90;1.20;;;;;;;24.10;45.76;98861.24;432433;1273;145227;-50
2022/05/21 07:03:34;;;;;;;10.00;3.80;;;;;;;23.23;44.60;98882.60;431647;1273;145732;-53
2022/05/21 07:13:40;;;;;;;1.80;0.50;;;;;;;22.71;43.90;98905.64;430416;1272;141455;-52
2022/05/21 07:23:46;;;;;;;1.90;0.40;;;;;;;19.11;47.11;98926.98;432309;1272;142464;-53
2022/05/21 07:33:52;;;;;;;0.50;0.30;;;;;;;18.63;48.78;98942.35;430939;1273;146539;-50
2022/05/21 07:43:58;;;;;;;12.50;1.50;;;;;;;19.81;48.17;98952.25;430374;1273;141314;-50
2022/05/21 07:54:04;;;;;;;0.90;0.50;;;;;;;25.75;42.06;98954.59;432204;1273;141746;-55
2022/05/21 08:04:10;;;;;;;1.90;0.40;;;;;;;24.36;37.47;98972.83;432138;1273;141289;-49
2022/05/21 08:14:16;;;;;;;0.90;0.60;;;;;;;21.70;40.17;98977.31;430266;1273;141256;-54
2022/05/21 08:34:45;;;;;;;0.50;0.50;;;;;;;20.74;41.13;98982.05;429993;1273;142301;-50
2022/05/21 08:45:01;;;;;;;1.50;0.50;;;;;;;20.24;41.43;98979.17;430924;1272;145249;-51
2022/05/21 08:55:10;;;;;;;1.20;0.60;;;;;;;19.01;42.94;98990.31;438340;1273;186350;-50
2022/05/21 09:05:17;;;;;;;1.50;0.80;;;;;;;18.26;43.99;99011.34;430952;1273;141462;-55
2022/05/21 09:26:06;;;;;;;2.60;0.50;;;;;;;18.90;45.24;99020.15;430231;1272;146158;-52
2022/05/21 09:36:18;;;;;;;1.50;0.80;;;;;;;19.21;43.25;99028.91;434086;1273;140892;-52
2022/05/21 09:46:26;;;;;;;4.50;0.80;;;;;;;19.03;44.30;99040.36;440078;1273;141596;-52
2022/05/21 09:56:34;;;;;;;2.10;0.60;;;;;;;19.63;43.87;99044.29;431378;1272;143946;-51
2022/05/21 10:06:45;;;;;;;3.80;0.60;;;;;;;19.81;42.64;99058.25;431136;1273;142031;-56
2022/05/21 10:16:55;;;;;;;1.30;0.50;;;;;;;19.88;42.41;99069.52;429963;1273;140972;-49
2022/05/21 10:27:08;;;;;;;5.80;0.50;;;;;;;19.87;42.19;99082.02;431189;1273;141112;-53
2022/05/21 10:37:28;;;;;;;8.40;1.70;;;;;;;18.92;43.19;99104.86;430286;1273;141180;-50
2022/05/21 10:47:59;;;;;;;2.40;0.60;;;;;;;18.84;43.53;99120.77;430468;1273;141741;-53
2022/05/21 10:58:20;;;;;;;1.00;0.40;;;;;;;19.11;42.99;99135.25;431298;1273;145014;-53
2022/05/21 11:08:35;;;;;;;2.30;0.50;;;;;;;19.08;42.53;99145.65;430427;1273;141147;-52
2022/05/21 11:18:46;;;;;;;2.40;0.50;;;;;;;18.83;41.90;99153.86;431116;1273;140403;-53
2022/05/21 11:28:58;;;;;;;1.80;0.50;;;;;;;18.81;41.41;99167.28;429549;1273;141596;-50
2022/05/21 11:39:08;;;;;;;2.30;0.50;;;;;;;18.57;41.50;99194.20;430326;1273;140953;-48
2022/05/21 11:49:39;;;;;;;2.80;0.70;;;;;;;18.75;41.27;99203.80;430222;1273;142203;-51
2022/05/21 11:59:53;;;;;;;4.10;0.70;;;;;;;18.47;41.29;99210.77;431223;1273;141001;-52
2022/05/21 12:10:03;;;;;;;1.70;0.80;;;;;;;17.90;41.91;99229.47;430713;1273;141661;-48
2022/05/21 12:20:11;;;;;;;3.10;1.00;;;;;;;18.44;41.28;99232.75;430056;1273;140813;-50
2022/05/21 12:30:24;;;;;;;1.30;0.80;;;;;;;18.73;40.87;99237.14;430953;1273;144679;-50
2022/05/21 12:40:42;;;;;;;2.80;0.80;;;;;;;18.29;41.02;99248.84;430764;1273;141278;-51
2022/05/21 12:50:52;;;;;;;1.70;1.50;;;;;;;18.52;41.55;99256.35;432566;1272;140731;-49
2022/05/21 13:01:00;;;;;;;3.50;2.20;;;;;;;19.14;41.14;99246.40;430052;1273;148064;-47
2022/05/21 13:11:15;;;;;;;3.70;1.20;;;;;;;18.80;41.07;99253.16;433279;1273;141794;-49
2022/05/21 13:21:34;;;;;;;3.50;1.30;;;;;;;18.23;41.58;99254.56;430915;1273;141983;-53
2022/05/21 13:31:40;;;;;;;3.80;1.30;;;;;;;18.16;42.00;99249.20;429978;1273;142645;-53
2022/05/21 13:41:46;;;;;;;1.80;0.90;;;;;;;18.38;42.11;99250.37;431965;1273;140585;-52
2022/05/21 13:51:52;;;;;;;1.50;1.00;;;;;;;18.58;42.19;99249.17;429013;1274;142457;-50
2022/05/21 14:02:16;;;;;;;6.40;5.90;;;;;;;18.56;41.81;99251.52;439035;1274;140755;-55
2022/05/21 14:12:33;;;;;;;8.40;1.60;;;;;;;17.99;42.28;99252.48;432485;1273;146097;-51
2022/05/21 14:22:39;;;;;;;3.20;1.00;;;;;;;17.50;43.32;99247.89;432704;1273;154910;-51
2022/05/21 14:32:45;;;;;;;1.60;1.20;;;;;;;17.42;44.77;99250.84;431440;1273;147028;-54
2022/05/21 14:42:52;;;;;;;1.30;0.50;;;;;;;17.39;45.56;99250.71;430454;1273;143310;-53
2022/05/21 14:53:01;;;;;;;1.10;0.50;;;;;;;17.39;45.80;99249.52;431897;1274;144812;-52
2022/05/21 15:03:07;;;;;;;3.70;1.10;;;;;;;17.14;45.96;99237.11;432846;1273;236844;-50
2022/05/21 15:13:13;;;;;;;1.40;0.80;;;;;;;16.55;48.17;99284.77;430777;1272;144537;-51
2022/05/21 15:23:19;;;;;;;1.50;1.20;;;;;;;14.46;55.43;99308.61;431297;1273;140597;-49
2022/05/21 15:33:25;;;;;;;0.80;0.80;;;;;;;13.91;58.26;99273.20;431707;1273;141928;-51
2022/05/21 15:43:31;;;;;;;1.70;1.30;;;;;;;14.03;59.69;99255.44;430813;1273;142598;-50
2022/05/21 15:53:37;;;;;;;0.90;0.80;;;;;;;14.47;60.18;99246.27;431527;1273;141729;-49
2022/05/21 16:03:43;;;;;;;2.00;0.90;;;;;;;14.33;60.49;99235.70;434344;1273;142330;-52
2022/05/21 16:13:50;;;;;;;1.30;1.20;;;;;;;14.06;61.31;99232.88;446041;1273;141940;-53
2022/05/21 16:23:58;;;;;;;3.80;1.80;;;;;;;13.72;62.08;99234.41;437589;1273;142784;-52
2022/05/21 16:34:04;;;;;;;3.00;1.40;;;;;;;13.94;62.32;99222.98;440913;1272;142574;-51
2022/05/21 16:44:09;;;;;;;3.30;1.30;;;;;;;14.07;62.42;99226.44;431095;1273;141599;-54
2022/05/21 16:54:15;;;;;;;1.10;1.00;;;;;;;14.42;62.67;99206.58;439120;1273;144528;-49
2022/05/21 17:04:21;;;;;;;2.20;0.80;;;;;;;14.33;62.22;99190.30;434448;1273;141551;-54
2022/05/21 17:14:27;;;;;;;0.70;0.50;;;;;;;14.50;61.40;99184.77;443229;1272;147440;-56
2022/05/21 17:24:33;;;;;;;0.80;0.50;;;;;;;13.75;61.69;99196.02;434756;1272;143946;-55
2022/05/21 17:34:39;;;;;;;1.60;0.60;;;;;;;13.34;62.12;99179.14;436450;1273;146084;-57
2022/05/21 17:44:45;;;;;;;3.90;1.20;;;;;;;13.14;62.63;99178.27;445211;1272;142873;-57
2022/05/21 17:54:52;;;;;;;1.00;0.80;;;;;;;13.16;63.21;99173.25;443618;1272;141405;-55
2022/05/21 18:04:59;;;;;;;1.60;1.20;;;;;;;13.28;63.96;99163.99;443479;1271;145260;-56
2022/05/21 18:15:07;;;;;;;3.30;1.40;;;;;;;13.24;64.38;99160.79;430502;1273;142534;-57
2022/05/21 18:25:17;;;;;;;2.60;1.50;;;;;;;12.96;65.12;99163.06;447079;1273;142599;-57
2022/05/21 18:35:23;;;;;;;2.60;1.40;;;;;;;12.61;65.72;99176.34;446327;1271;142402;-56
2022/05/21 18:45:30;;;;;;;2.00;0.80;;;;;;;12.37;65.77;99186.29;437507;1273;141676;-54
2022/05/21 18:55:56;;;;;;;2.70;1.00;;;;;;;12.08;65.63;99197.09;443531;1271;142352;-54
2022/05/21 19:06:01;;;;;;;4.80;1.80;;;;;;;11.73;66.49;99202.66;442260;1272;141843;-56
2022/05/21 19:16:11;;;;;;;3.20;2.10;;;;;;;11.69;67.29;99212.39;447136;1272;200120;-55
2022/05/21 19:26:17;;;;;;;1.50;1.40;;;;;;;11.71;67.34;99209.80;446437;1272;142263;-55
2022/05/21 19:36:23;;;;;;;3.80;2.10;;;;;;;11.40;67.99;99212.65;447227;1272;142308;-56
2022/05/21 19:46:28;;;;;;;2.70;1.80;;;;;;;11.14;68.72;99211.32;443052;1271;142418;-56
2022/05/21 19:56:34;;;;;;;4.10;2.30;;;;;;;10.94;69.53;99210.46;438355;1273;143535;-56
2022/05/21 20:06:40;;;;;;;2.20;2.00;;;;;;;10.79;70.08;99213.49;443466;1273;142299;-57
2022/05/21 20:16:46;;;;;;;5.10;2.80;;;;;;;10.83;70.85;99224.38;446346;1272;145319;-54
2022/05/21 20:27:01;;;;;;;7.40;3.10;;;;;;;11.01;71.07;99220.30;432225;1273;141239;-53
2022/05/21 20:37:07;;;;;;;6.90;2.90;;;;;;;11.02;71.37;99215.72;429979;1272;183125;-56
2022/05/21 20:47:15;;;;;;;6.10;3.70;;;;;;;10.85;71.75;99216.02;432179;1272;141704;-51
2022/05/21 20:57:22;;;;;;;5.70;4.50;;;;;;;10.73;72.41;99206.36;431325;1272;141297;-53
2022/05/21 21:07:28;;;;;;;4.30;3.60;;;;;;;10.78;72.84;99196.90;433114;1273;141584;-54
2022/05/21 21:17:34;;;;;;;5.80;4.90;;;;;;;10.89;73.08;99201.41;430147;1273;141047;-56
2022/05/21 21:27:41;;;;;;;3.80;2.60;;;;;;;11.06;73.87;99251.15;433146;1273;145589;-57
2022/05/21 21:37:47;;;;;;;0.90;0.70;;;;;;;10.80;73.35;99222.31;431287;1273;141877;-52
2022/05/21 21:47:55;;;;;;;1.40;1.00;;;;;;;10.52;73.25;99210.45;433748;1272;141918;-49
2022/05/21 22:08:20;;;;;;;4.00;3.00;;;;;;;10.32;74.82;99207.58;432308;1271;145576;-51
2022/05/21 22:18:27;;;;;;;3.70;3.40;;;;;;;10.41;75.82;99199.64;431522;1272;146087;-49
2022/05/21 22:28:33;;;;;;;5.00;3.10;;;;;;;10.55;76.15;99196.23;430846;1273;146809;-50
2022/05/21 22:38:39;;;;;;;3.40;2.50;;;;;;;10.52;76.23;99193.64;430191;1273;142386;-51
2022/05/21 22:48:44;;;;;;;3.20;2.30;;;;;;;10.50;76.50;99190.27;430397;1273;142631;-48
2022/05/21 22:58:50;;;;;;;2.60;2.40;;;;;;;10.57;76.84;99187.52;431221;1273;141852;-51
2022/05/21 23:08:56;;;;;;;3.20;2.90;;;;;;;10.65;76.95;99180.15;432360;1272;142065;-49
2022/05/21 23:19:02;;;;;;;4.60;2.80;;;;;;;10.73;77.16;99171.51;442647;1272;141903;-51
2022/05/21 23:29:08;;;;;;;3.40;2.30;;;;;;;10.81;77.13;99169.02;432529;1273;142017;-49
2022/05/21 23:39:14;;;;;;;2.30;2.20;;;;;;;10.70;76.81;99151.80;431161;1273;141990;-48
2022/05/21 23:49:20;;;;;;;3.90;2.40;;;;;;;10.43;76.93;99157.84;430946;1273;143747;-48
2022/05/21 23:59:26;;;;;;;2.40;2.20;;;;;;;10.16;77.35;99157.44;434230;1273;141856;-51
